createdAt,value
2022-08-07T00:02:36.132Z,7.70
2022-08-07T00:05:04.253Z,7.71
2022-08-07T00:07:40.826Z,7.71
2022-08-07T00:10:27.371Z,7.74
2022-08-07T00:13:01.203Z,7.74
2022-08-07T00:15:38.253Z,7.80
2022-08-07T00:18:19.907Z,7.80
2022-08-07T00:20:54.089Z,7.65
2022-08-07T00:23:22.294Z,7.63
2022-08-07T00:25:59.062Z,7.40
2022-08-07T00:28:33.199Z,7.32
2022-08-07T00:31:05.722Z,7.09
2022-08-07T00:33:33.488Z,7.16
2022-08-07T00:36:02.616Z,7.19
2022-08-07T00:38:31.788Z,7.16
2022-08-07T00:41:00.950Z,7.26
2022-08-07T00:44:01.246Z,7.16
2022-08-07T00:46:16.021Z,7.33
2022-08-07T00:48:43.482Z,7.01
2022-08-07T00:51:12.398Z,6.73
2022-08-07T00:53:55.009Z,6.67
2022-08-07T00:56:30.224Z,6.68
2022-08-07T00:58:58.557Z,6.91
2022-08-07T01:01:26.751Z,6.83
2022-08-07T01:04:00.192Z,6.76
2022-08-07T01:06:30.145Z,6.68
2022-08-07T01:09:00.791Z,6.74
2022-08-07T01:12:23.537Z,6.65
2022-08-07T01:14:16.868Z,6.76
2022-08-07T01:16:47.145Z,6.75
2022-08-07T01:19:19.110Z,6.66
2022-08-07T01:21:53.295Z,6.41
2022-08-07T01:24:23.636Z,6.29
2022-08-07T01:26:53.781Z,6.29
2022-08-07T01:29:23.411Z,6.22
2022-08-07T01:31:55.944Z,6.37
2022-08-07T01:34:30.684Z,6.69
2022-08-07T01:37:01.310Z,6.61
2022-08-07T01:39:40.718Z,6.59
2022-08-07T01:42:40.219Z,6.34
2022-08-07T01:45:03.173Z,6.29
2022-08-07T01:48:18.499Z,6.30
2022-08-07T01:50:22.727Z,6.14
2022-08-07T01:52:59.630Z,6.15
2022-08-07T01:55:29.572Z,5.97
2022-08-07T01:58:06.489Z,5.92
2022-08-07T02:01:25.164Z,6.00
2022-08-07T02:03:57.234Z,6.01
2022-08-07T02:06:31.215Z,5.80
2022-08-07T02:09:04.515Z,5.81
2022-08-07T02:12:04.089Z,5.93
2022-08-07T02:14:36.073Z,5.95
2022-08-07T02:17:08.432Z,5.87
2022-08-07T02:20:06.880Z,5.93
2022-08-07T02:22:27.089Z,5.83
2022-08-07T02:24:58.109Z,5.82
2022-08-07T02:27:34.454Z,5.85
2022-08-07T02:30:07.161Z,5.68
2022-08-07T02:32:36.243Z,5.78
2022-08-07T02:35:10.594Z,5.79
2022-08-07T02:37:43.989Z,5.75
2022-08-07T02:40:34.868Z,5.63
2022-08-07T02:43:02.583Z,5.67
2022-08-07T02:46:00.734Z,5.73
2022-08-07T02:48:27.455Z,5.58
2022-08-07T02:50:57.091Z,5.60
2022-08-07T02:53:27.772Z,5.46
2022-08-07T02:56:04.287Z,5.36
2022-08-07T02:58:34.774Z,5.36
2022-08-07T03:01:04.602Z,5.65
2022-08-07T03:03:49.913Z,5.63
2022-08-07T03:06:25.910Z,5.59
2022-08-07T03:09:01.914Z,5.43
2022-08-07T03:11:32.622Z,5.37
2022-08-07T03:14:02.065Z,5.37
2022-08-07T03:16:30.707Z,5.39
2022-08-07T03:18:59.001Z,5.39
2022-08-07T03:21:27.575Z,5.34
2022-08-07T03:24:20.625Z,5.40
2022-08-07T03:26:57.978Z,5.35
2022-08-07T03:29:28.946Z,5.36
2022-08-07T03:31:57.548Z,5.38
2022-08-07T03:34:28.762Z,5.43
2022-08-07T03:36:58.206Z,5.37
2022-08-07T03:39:59.281Z,5.30
2022-08-07T03:42:18.285Z,5.38
2022-08-07T03:44:53.811Z,5.33
2022-08-07T03:47:26.278Z,5.28
2022-08-07T03:49:58.332Z,5.41
2022-08-07T03:52:28.623Z,5.32
2022-08-07T03:55:06.217Z,5.31
2022-08-07T03:58:33.768Z,5.13
2022-08-07T04:00:29.296Z,5.07
2022-08-07T04:02:59.053Z,5.13
2022-08-07T04:05:39.672Z,5.09
2022-08-07T04:08:11.319Z,5.08
2022-08-07T04:10:39.469Z,4.94
2022-08-07T04:13:15.457Z,5.03
2022-08-07T04:15:45.522Z,5.21
2022-08-07T04:18:58.353Z,5.19
2022-08-07T04:21:02.983Z,5.17
2022-08-07T04:23:43.754Z,5.03
2022-08-07T04:26:23.323Z,5.05
2022-08-07T04:28:58.575Z,5.12
2022-08-07T04:31:38.751Z,5.08
2022-08-07T04:34:16.754Z,5.08
2022-08-07T04:36:45.323Z,5.15
2022-08-07T04:39:17.599Z,5.22
2022-08-07T04:41:50.400Z,5.19
2022-08-07T04:44:20.418Z,5.39
2022-08-07T04:47:03.770Z,5.84
2022-08-07T04:49:47.582Z,5.85
2022-08-07T04:52:34.993Z,5.97
2022-08-07T04:55:15.217Z,6.10
2022-08-07T04:58:11.027Z,6.21
2022-08-07T05:00:55.747Z,6.45
2022-08-07T05:04:00.008Z,6.58
2022-08-07T05:06:20.343Z,6.73
2022-08-07T05:09:01.441Z,6.89
2022-08-07T05:11:58.933Z,6.85
2022-08-07T05:14:55.126Z,6.97
2022-08-07T05:17:52.018Z,7.26
2022-08-07T05:20:10.159Z,7.37
2022-08-07T05:22:40.016Z,7.67
2022-08-07T05:25:11.808Z,7.89
2022-08-07T05:28:16.364Z,8.15
2022-08-07T05:30:44.205Z,8.21
2022-08-07T05:33:18.047Z,8.40
2022-08-07T05:35:49.674Z,8.65
2022-08-07T05:38:59.849Z,8.84
2022-08-07T05:41:14.178Z,9.15
2022-08-07T05:44:07.791Z,9.44
2022-08-07T05:46:36.735Z,9.82
2022-08-07T05:49:12.015Z,10.16
2022-08-07T05:51:42.440Z,10.32
2022-08-07T05:54:19.477Z,10.59
2022-08-07T05:56:58.927Z,10.87
2022-08-07T05:59:28.067Z,11.22
2022-08-07T06:01:56.722Z,11.39
2022-08-07T06:04:30.174Z,11.69
2022-08-07T06:07:03.630Z,12.04
2022-08-07T06:10:03.749Z,12.29
2022-08-07T06:12:20.864Z,12.82
2022-08-07T06:14:49.924Z,13.05
2022-08-07T06:17:18.895Z,13.20
2022-08-07T06:20:03.642Z,13.53
2022-08-07T06:22:38.532Z,13.98
2022-08-07T06:25:08.479Z,14.13
2022-08-07T06:28:00.208Z,14.47
2022-08-07T06:30:36.146Z,14.54
2022-08-07T06:33:10.008Z,15.03
2022-08-07T06:36:06.279Z,14.52
2022-08-07T06:38:32.857Z,14.56
2022-08-07T06:41:07.178Z,14.34
2022-08-07T06:43:46.566Z,14.31
2022-08-07T06:46:35.131Z,14.61
2022-08-07T06:49:04.504Z,14.40
2022-08-07T06:51:35.533Z,15.15
2022-08-07T06:55:31.492Z,14.95
2022-08-07T06:57:09.047Z,14.92
2022-08-07T07:00:11.394Z,15.00
2022-08-07T07:02:49.168Z,15.47
2022-08-07T07:06:02.407Z,15.65
2022-08-07T07:08:06.643Z,15.81
2022-08-07T07:10:37.712Z,15.90
2022-08-07T07:13:13.050Z,15.97
2022-08-07T07:15:45.402Z,15.59
2022-08-07T07:18:47.125Z,15.80
2022-08-07T07:21:19.884Z,15.63
2022-08-07T07:24:08.870Z,15.99
2022-08-07T07:26:38.899Z,15.82
2022-08-07T07:29:38.425Z,16.29
2022-08-07T07:32:03.939Z,15.98
2022-08-07T07:34:33.817Z,16.41
2022-08-07T07:37:05.611Z,16.65
2022-08-07T07:39:54.614Z,16.13
2022-08-07T07:42:32.978Z,16.33
2022-08-07T07:45:03.119Z,16.35
2022-08-07T07:47:51.851Z,16.49
2022-08-07T07:50:35.972Z,16.54
2022-08-07T07:53:13.628Z,17.09
2022-08-07T07:55:54.965Z,17.57
2022-08-07T07:58:30.287Z,16.48
2022-08-07T08:00:59.444Z,17.23
2022-08-07T08:04:09.343Z,16.98
2022-08-07T08:06:20.291Z,17.12
2022-08-07T08:08:50.230Z,17.36
2022-08-07T08:11:59.697Z,17.02
2022-08-07T08:14:08.514Z,17.53
2022-08-07T08:16:40.980Z,17.77
2022-08-07T08:20:18.852Z,18.21
2022-08-07T08:22:32.887Z,18.26
2022-08-07T08:25:26.896Z,18.45
2022-08-07T08:28:16.907Z,17.97
2022-08-07T08:30:55.632Z,18.31
2022-08-07T08:33:25.264Z,18.21
2022-08-07T08:35:59.231Z,17.80
2022-08-07T08:38:38.135Z,18.01
2022-08-07T08:41:15.590Z,18.17
2022-08-07T08:43:56.076Z,18.41
2022-08-07T08:46:38.337Z,18.03
2022-08-07T08:49:11.260Z,17.97
2022-08-07T08:51:49.392Z,18.57
2022-08-07T08:54:41.611Z,18.65
2022-08-07T08:57:17.478Z,18.54
2022-08-07T08:59:54.239Z,18.67
2022-08-07T09:02:37.566Z,18.76
2022-08-07T09:05:24.960Z,18.89
2022-08-07T09:08:11.952Z,19.11
2022-08-07T09:10:49.560Z,18.58
2022-08-07T09:13:37.595Z,18.74
2022-08-07T09:16:20.482Z,18.74
2022-08-07T09:19:51.322Z,19.03
2022-08-07T09:24:29.343Z,19.08
2022-08-07T09:25:14.822Z,18.78
2022-08-07T09:28:00.127Z,18.70
2022-08-07T09:30:37.971Z,18.84
2022-08-07T09:33:41.324Z,18.95
2022-08-07T09:36:16.102Z,19.09
2022-08-07T09:38:53.690Z,18.87
2022-08-07T09:41:36.358Z,19.16
2022-08-07T09:47:26.312Z,19.05
2022-08-07T09:47:56.007Z,18.79
2022-08-07T09:50:37.367Z,19.07
2022-08-07T09:53:12.500Z,19.24
2022-08-07T09:56:03.206Z,19.34
2022-08-07T09:59:07.764Z,19.39
2022-08-07T10:01:58.965Z,19.12
2022-08-07T10:04:38.399Z,19.39
2022-08-07T10:07:52.861Z,19.38
2022-08-07T10:10:43.623Z,19.46
2022-08-07T10:14:00.881Z,19.53
2022-08-07T10:16:46.753Z,19.51
2022-08-07T10:19:41.853Z,19.58
2022-08-07T10:22:33.567Z,19.43
2022-08-07T10:25:42.786Z,19.52
2022-08-07T10:28:23.554Z,19.74
2022-08-07T10:31:11.242Z,19.81
2022-08-07T10:34:14.299Z,19.72
2022-08-07T10:36:59.273Z,19.51
2022-08-07T10:40:03.421Z,19.84
2022-08-07T10:42:39.431Z,20.34
2022-08-07T10:45:19.524Z,20.45
2022-08-07T10:48:15.766Z,20.57
2022-08-07T10:50:50.095Z,20.27
2022-08-07T10:53:28.577Z,20.64
2022-08-07T10:56:31.451Z,20.14
2022-08-07T10:59:10.506Z,20.27
2022-08-07T11:02:05.297Z,20.27
2022-08-07T11:05:10.579Z,20.28
2022-08-07T11:07:58.923Z,19.83
2022-08-07T11:10:35.138Z,20.24
2022-08-07T11:14:43.554Z,20.19
2022-08-07T11:16:19.551Z,20.20
2022-08-07T11:18:51.747Z,20.08
2022-08-07T11:21:31.894Z,20.43
2022-08-07T11:24:08.507Z,20.56
2022-08-07T11:26:43.311Z,20.80
2022-08-07T11:29:40.899Z,20.70
2022-08-07T11:32:26.236Z,20.75
2022-08-07T11:34:58.263Z,20.43
2022-08-07T11:37:38.380Z,20.53
2022-08-07T11:40:36.441Z,20.38
2022-08-07T11:43:15.554Z,20.78
2022-08-07T11:46:05.679Z,20.64
2022-08-07T11:49:51.539Z,20.47
2022-08-07T11:51:51.552Z,20.30
2022-08-07T11:54:55.024Z,20.23
2022-08-07T11:57:51.000Z,20.48
2022-08-07T12:00:21.226Z,20.61
2022-08-07T12:03:41.921Z,20.69
2022-08-07T12:06:37.034Z,20.21
2022-08-07T12:09:16.617Z,20.83
2022-08-07T12:12:10.305Z,20.45
2022-08-07T12:14:55.245Z,20.41
2022-08-07T12:17:33.469Z,21.03
2022-08-07T12:20:18.606Z,21.31
2022-08-07T12:23:14.496Z,21.28
2022-08-07T12:26:22.095Z,20.92
2022-08-07T12:28:53.291Z,20.86
2022-08-07T12:31:52.335Z,20.72
2022-08-07T12:34:18.040Z,20.80
2022-08-07T12:36:50.156Z,20.98
2022-08-07T12:39:43.170Z,20.95
2022-08-07T12:42:10.207Z,20.89
2022-08-07T12:44:44.925Z,20.85
2022-08-07T12:47:26.982Z,20.83
2022-08-07T12:50:38.527Z,21.13
2022-08-07T12:53:01.054Z,21.39
2022-08-07T12:55:40.702Z,21.35
2022-08-07T12:58:13.263Z,21.41
2022-08-07T13:00:51.399Z,21.22
2022-08-07T13:03:54.855Z,21.22
2022-08-07T13:07:01.153Z,21.67
2022-08-07T13:10:18.937Z,21.83
2022-08-07T13:12:32.607Z,21.78
2022-08-07T13:15:14.966Z,21.71
2022-08-07T13:18:04.194Z,21.43
2022-08-07T13:20:41.117Z,21.24
2022-08-07T13:24:02.081Z,21.49
2022-08-07T13:26:16.077Z,21.40
2022-08-07T13:28:58.773Z,21.29
2022-08-07T13:31:32.167Z,21.30
2022-08-07T13:34:33.539Z,21.48
2022-08-07T13:37:10.668Z,21.75
2022-08-07T13:40:36.634Z,21.90
2022-08-07T13:42:39.773Z,21.89
2022-08-07T13:45:20.782Z,22.03
2022-08-07T13:48:06.327Z,22.38
2022-08-07T13:50:44.765Z,22.24
2022-08-07T13:53:36.047Z,22.22
2022-08-07T13:56:35.980Z,22.38
2022-08-07T13:59:13.718Z,23.05
2022-08-07T14:02:04.416Z,23.73
2022-08-07T14:04:36.911Z,23.64
2022-08-07T14:07:10.044Z,22.74
2022-08-07T14:10:01.534Z,22.75
2022-08-07T14:12:41.968Z,22.92
2022-08-07T14:15:31.968Z,22.38
2022-08-07T14:18:24.019Z,22.32
2022-08-07T14:21:00.204Z,22.84
2022-08-07T14:23:59.992Z,22.59
2022-08-07T14:26:32.350Z,23.11
2022-08-07T14:31:57.855Z,23.07
2022-08-07T14:34:30.045Z,22.68
2022-08-07T14:37:01.654Z,23.16
2022-08-07T14:40:15.803Z,23.34
2022-08-07T14:42:25.826Z,22.82
2022-08-07T14:47:50.026Z,23.20
2022-08-07T14:50:22.469Z,23.29
2022-08-07T14:52:53.967Z,23.42
2022-08-07T14:55:22.852Z,23.49
2022-08-07T14:57:58.111Z,24.21
2022-08-07T15:00:30.969Z,23.36
2022-08-07T15:03:16.530Z,23.46
2022-08-07T15:05:55.367Z,23.32
2022-08-07T15:08:33.890Z,24.16
2022-08-07T15:11:05.441Z,24.63
2022-08-07T15:13:36.955Z,23.41
2022-08-07T15:16:11.134Z,23.72
2022-08-07T15:21:43.930Z,23.35
2022-08-07T15:25:13.619Z,22.78
2022-08-07T15:27:09.402Z,23.20
2022-08-07T15:32:40.108Z,23.37
2022-08-07T15:36:02.224Z,22.77
2022-08-07T15:38:30.410Z,23.46
2022-08-07T15:41:22.802Z,23.82
2022-08-07T15:44:00.303Z,24.20
2022-08-07T15:46:37.647Z,23.78
2022-08-07T15:49:15.241Z,23.63
2022-08-07T15:54:34.035Z,23.75
2022-08-07T15:57:03.506Z,23.56
2022-08-07T15:59:39.486Z,24.63
2022-08-07T16:02:23.826Z,23.87
2022-08-07T16:04:57.009Z,23.26
2022-08-07T16:08:32.327Z,23.60
2022-08-07T16:10:21.648Z,23.82
2022-08-07T16:13:05.749Z,24.64
2022-08-07T16:15:57.663Z,24.14
2022-08-07T16:18:50.759Z,23.73
2022-08-07T16:22:01.371Z,24.01
2022-08-07T16:24:34.452Z,23.68
2022-08-07T16:27:18.278Z,23.64
2022-08-07T16:30:11.335Z,23.38
2022-08-07T16:32:58.481Z,23.64
2022-08-07T16:35:58.496Z,23.63
2022-08-07T16:38:58.575Z,23.28
2022-08-07T16:42:02.206Z,23.66
2022-08-07T16:45:15.516Z,23.07
2022-08-07T16:47:56.697Z,23.12
2022-08-07T16:50:38.949Z,23.47
2022-08-07T16:54:01.109Z,23.17
2022-08-07T16:56:37.560Z,22.79
2022-08-07T16:59:17.467Z,23.45
2022-08-07T17:02:09.038Z,23.53
2022-08-07T17:04:50.983Z,23.31
2022-08-07T17:07:55.099Z,22.46
2022-08-07T17:10:33.972Z,22.25
2022-08-07T17:13:41.326Z,22.14
2022-08-07T17:16:20.709Z,22.44
2022-08-07T17:19:01.823Z,22.43
2022-08-07T17:21:51.824Z,22.84
2022-08-07T17:24:48.819Z,22.80
2022-08-07T17:27:32.596Z,23.14
2022-08-07T17:30:16.010Z,22.89
2022-08-07T17:34:09.613Z,22.47
2022-08-07T17:35:59.699Z,22.41
2022-08-07T17:38:35.216Z,22.38
2022-08-07T17:42:02.821Z,22.23
2022-08-07T17:44:05.623Z,22.54
2022-08-07T17:46:42.843Z,21.98
2022-08-07T17:49:23.815Z,22.07
2022-08-07T17:52:00.484Z,21.84
2022-08-07T17:54:40.104Z,22.18
2022-08-07T17:57:56.353Z,21.77
2022-08-07T18:00:33.353Z,21.80
2022-08-07T18:03:18.108Z,21.49
2022-08-07T18:06:02.072Z,20.94
2022-08-07T18:08:33.618Z,20.59
2022-08-07T18:12:06.697Z,20.69
2022-08-07T18:14:01.917Z,20.39
2022-08-07T18:16:34.938Z,20.29
2022-08-07T18:21:07.957Z,20.08
2022-08-07T18:22:15.100Z,20.16
2022-08-07T18:24:51.282Z,19.99
2022-08-07T18:27:44.543Z,19.76
2022-08-07T18:30:32.516Z,19.67
2022-08-07T18:33:37.074Z,19.54
2022-08-07T18:36:17.848Z,19.39
2022-08-07T18:40:06.674Z,19.31
2022-08-07T18:42:12.823Z,19.02
2022-08-07T18:48:01.193Z,18.80
2022-08-07T18:50:53.488Z,18.76
2022-08-07T18:53:37.084Z,18.65
2022-08-07T18:56:20.245Z,18.62
2022-08-07T18:59:47.539Z,18.45
2022-08-07T19:02:33.111Z,18.33
2022-08-07T19:05:10.808Z,18.23
2022-08-07T19:07:57.130Z,18.11
2022-08-07T19:10:32.002Z,17.92
2022-08-07T19:13:26.465Z,17.86
2022-08-07T19:16:04.931Z,17.89
2022-08-07T19:18:55.318Z,17.60
2022-08-07T19:21:44.223Z,17.56
2022-08-07T19:24:44.608Z,17.51
2022-08-07T19:28:29.187Z,17.33
2022-08-07T19:31:06.041Z,17.36
2022-08-07T19:33:10.066Z,17.28
2022-08-07T19:35:43.374Z,17.03
2022-08-07T19:38:15.808Z,16.95
2022-08-07T19:40:49.571Z,16.77
2022-08-07T19:43:44.031Z,16.90
2022-08-07T19:46:10.700Z,16.84
2022-08-07T19:48:43.056Z,16.72
2022-08-07T19:51:19.359Z,16.61
2022-08-07T19:54:35.068Z,16.53
2022-08-07T19:58:02.556Z,16.40
2022-08-07T19:59:41.214Z,16.26
2022-08-07T20:02:19.465Z,16.25
2022-08-07T20:04:58.066Z,16.17
2022-08-07T20:07:47.149Z,16.18
2022-08-07T20:10:37.290Z,16.08
2022-08-07T20:13:15.865Z,15.93
2022-08-07T20:15:53.729Z,15.89
2022-08-07T20:18:32.394Z,15.88
2022-08-07T20:21:03.005Z,15.79
2022-08-07T20:23:41.964Z,15.75
2022-08-07T20:26:12.851Z,15.77
2022-08-07T20:28:53.769Z,15.72
2022-08-07T20:31:24.699Z,15.71
2022-08-07T20:33:57.307Z,15.57
2022-08-07T20:36:28.172Z,15.45
2022-08-07T20:39:00.303Z,15.39
2022-08-07T20:41:38.032Z,15.38
2022-08-07T20:44:10.511Z,15.29
2022-08-07T20:46:43.175Z,15.28
2022-08-07T20:49:58.049Z,15.30
2022-08-07T20:52:13.832Z,15.29
2022-08-07T20:54:53.619Z,15.15
2022-08-07T20:57:24.623Z,15.07
2022-08-07T21:00:05.541Z,15.09
2022-08-07T21:02:57.879Z,15.11
2022-08-07T21:05:52.629Z,15.08
2022-08-07T21:08:37.888Z,14.96
2022-08-07T21:11:12.317Z,14.93
2022-08-07T21:14:16.506Z,14.84
2022-08-07T21:16:56.031Z,14.81
2022-08-07T21:19:32.080Z,14.81
2022-08-07T21:22:19.502Z,14.81
2022-08-07T21:25:04.850Z,14.72
2022-08-07T21:27:53.817Z,14.61
2022-08-07T21:30:30.048Z,14.66
2022-08-07T21:33:15.736Z,14.51
2022-08-07T21:36:05.277Z,14.52
2022-08-07T21:38:49.719Z,14.52
2022-08-07T21:41:23.280Z,14.51
2022-08-07T21:43:57.835Z,14.43
2022-08-07T21:46:36.847Z,14.43
2022-08-07T21:49:14.917Z,14.38
2022-08-07T21:51:55.637Z,14.36
2022-08-07T21:54:33.285Z,14.31
2022-08-07T21:57:30.934Z,14.24
2022-08-07T22:00:08.735Z,14.18
2022-08-07T22:02:44.153Z,14.30
2022-08-07T22:05:44.593Z,14.24
2022-08-07T22:08:06.465Z,14.20
2022-08-07T22:10:42.510Z,14.10
2022-08-07T22:13:14.003Z,14.04
2022-08-07T22:16:44.187Z,13.91
2022-08-07T22:18:40.955Z,13.87
2022-08-07T22:21:15.377Z,13.94
2022-08-07T22:23:45.638Z,13.96
2022-08-07T22:26:20.440Z,13.89
2022-08-07T22:28:55.801Z,13.90
2022-08-07T22:31:59.076Z,13.86
2022-08-07T22:34:28.732Z,13.79
2022-08-07T22:37:09.311Z,13.81
2022-08-07T22:39:53.200Z,13.84
2022-08-07T22:42:30.394Z,13.89
2022-08-07T22:45:02.434Z,13.82
2022-08-07T22:47:59.057Z,13.80
2022-08-07T22:50:46.666Z,13.78
2022-08-07T22:54:07.766Z,13.72
2022-08-07T22:56:30.891Z,13.68
2022-08-07T22:59:43.848Z,13.58
2022-08-07T23:02:31.442Z,13.48
2022-08-07T23:06:07.167Z,13.46
2022-08-07T23:08:30.274Z,13.44
2022-08-07T23:11:13.357Z,13.34
2022-08-07T23:14:15.176Z,13.46
2022-08-07T23:16:55.897Z,13.42
2022-08-07T23:19:59.971Z,13.41
2022-08-07T23:22:45.299Z,13.38
2022-08-07T23:25:28.540Z,13.40
2022-08-07T23:28:21.378Z,13.42
2022-08-07T23:31:11.703Z,13.42
2022-08-07T23:34:34.749Z,13.26
2022-08-07T23:37:30.382Z,13.20
2022-08-07T23:40:10.119Z,13.05
2022-08-07T23:42:53.343Z,12.96
2022-08-07T23:45:33.217Z,12.94
2022-08-07T23:48:33.911Z,12.90
2022-08-07T23:51:12.390Z,12.98
2022-08-07T23:54:06.251Z,12.92
2022-08-07T23:56:53.885Z,12.79
